createdAt,value
2019-04-14T00:00:27.165Z,92.50
2019-04-14T00:02:57.711Z,92.60
2019-04-14T00:05:25.992Z,92.70
2019-04-14T00:07:54.207Z,92.40
2019-04-14T00:10:22.585Z,92.50
2019-04-14T00:12:51.445Z,92.50
2019-04-14T00:15:29.464Z,92.70
2019-04-14T00:17:50.366Z,92.30
2019-04-14T00:20:18.678Z,92.40
2019-04-14T00:22:46.908Z,92.60
2019-04-14T00:25:15.197Z,92.50
2019-04-14T00:27:43.406Z,92.70
2019-04-14T00:30:11.897Z,92.90
2019-04-14T00:32:58.014Z,92.70
2019-04-14T00:35:45.634Z,92.70
2019-04-14T00:38:21.789Z,92.80
2019-04-14T00:40:58.312Z,92.90
2019-04-14T00:43:43.898Z,93.00
2019-04-14T00:46:16.937Z,92.90
2019-04-14T00:48:47.394Z,92.80
2019-04-14T00:51:15.733Z,92.80
2019-04-14T00:53:44.598Z,92.70
2019-04-14T00:56:12.936Z,92.60
2019-04-14T00:58:41.160Z,92.30
2019-04-14T01:01:09.360Z,92.40
2019-04-14T01:03:37.575Z,92.50
2019-04-14T01:06:05.779Z,92.40
2019-04-14T01:08:33.997Z,92.10
2019-04-14T01:11:03.077Z,92.30
2019-04-14T01:13:31.406Z,92.00
2019-04-14T01:16:07.207Z,92.30
2019-04-14T01:18:29.832Z,92.50
2019-04-14T01:20:58.155Z,92.40
2019-04-14T01:23:26.367Z,92.10
2019-04-14T01:25:56.316Z,92.20
2019-04-14T01:28:24.787Z,92.10
2019-04-14T01:30:53.010Z,92.00
2019-04-14T01:33:21.204Z,92.20
2019-04-14T01:35:49.420Z,92.10
2019-04-14T01:38:17.642Z,91.70
2019-04-14T01:40:46.661Z,92.00
2019-04-14T01:43:15.028Z,91.90
2019-04-14T01:45:43.314Z,92.30
2019-04-14T01:48:12.657Z,92.30
2019-04-14T01:50:45.545Z,91.50
2019-04-14T01:53:16.108Z,91.50
2019-04-14T01:55:46.256Z,91.40
2019-04-14T01:58:16.418Z,91.10
2019-04-14T02:00:46.683Z,91.40
2019-04-14T02:03:15.068Z,91.60
2019-04-14T02:05:43.268Z,91.60
2019-04-14T02:08:11.489Z,91.40
2019-04-14T02:10:39.697Z,91.30
2019-04-14T02:13:09.190Z,91.40
2019-04-14T02:15:37.616Z,90.90
2019-04-14T02:18:05.837Z,90.80
2019-04-14T02:20:34.048Z,90.90
2019-04-14T02:23:02.276Z,90.70
2019-04-14T02:25:31.669Z,91.00
2019-04-14T02:28:00.178Z,91.00
2019-04-14T02:30:36.266Z,90.20
2019-04-14T02:33:33.792Z,90.30
2019-04-14T02:36:05.760Z,91.00
2019-04-14T02:38:34.211Z,91.00
2019-04-14T02:41:04.295Z,91.20
2019-04-14T02:43:29.682Z,90.90
2019-04-14T02:48:37.748Z,91.20
2019-04-14T02:50:56.092Z,90.70
2019-04-14T02:53:39.319Z,90.70
2019-04-14T02:56:01.978Z,91.10
2019-04-14T02:58:34.643Z,91.20
2019-04-14T03:01:03.980Z,91.20
2019-04-14T03:06:10.386Z,91.30
2019-04-14T03:08:26.113Z,91.60
2019-04-14T03:10:53.973Z,91.70
2019-04-14T03:15:58.891Z,91.70
2019-04-14T03:18:39.615Z,91.80
2019-04-14T03:21:21.287Z,91.50
2019-04-14T03:26:45.027Z,91.70
2019-04-14T03:29:24.772Z,91.70
2019-04-14T03:34:34.158Z,92.10
2019-04-14T03:39:24.906Z,92.10
2019-04-14T03:44:25.777Z,91.80
2019-04-14T03:46:50.740Z,91.90
2019-04-14T03:49:24.863Z,91.70
2019-04-14T03:51:50.626Z,91.50
2019-04-14T03:54:15.922Z,91.40
2019-04-14T03:56:46.697Z,91.30
2019-04-14T03:59:15.802Z,91.40
2019-04-14T04:01:44.088Z,91.00
2019-04-14T04:04:12.316Z,91.00
2019-04-14T04:06:40.527Z,90.60
2019-04-14T04:09:08.748Z,90.40
2019-04-14T04:11:37.020Z,90.50
2019-04-14T04:14:05.323Z,90.70
2019-04-14T04:16:35.536Z,90.60
2019-04-14T04:19:12.998Z,90.40
2019-04-14T04:21:55.870Z,90.20
2019-04-14T04:24:43.304Z,90.50
2019-04-14T04:27:20.052Z,90.30
2019-04-14T04:29:59.232Z,90.40
2019-04-14T04:32:29.765Z,90.40
2019-04-14T04:35:02.697Z,90.30
2019-04-14T04:37:35.435Z,89.70
2019-04-14T04:40:15.781Z,90.20
2019-04-14T04:42:44.000Z,90.00
2019-04-14T04:45:12.767Z,89.60
2019-04-14T04:47:41.096Z,89.70
2019-04-14T04:50:09.308Z,89.50
2019-04-14T04:52:38.565Z,89.80
2019-04-14T04:55:06.854Z,88.90
2019-04-14T04:57:35.205Z,89.50
2019-04-14T05:00:05.443Z,88.70
2019-04-14T05:02:33.640Z,88.10
2019-04-14T05:05:03.417Z,88.50
2019-04-14T05:07:31.796Z,88.00
2019-04-14T05:10:02.655Z,87.40
2019-04-14T05:12:32.769Z,87.60
2019-04-14T05:15:03.566Z,87.80
2019-04-14T05:17:34.269Z,87.10
2019-04-14T05:20:03.216Z,86.70
2019-04-14T05:22:31.671Z,87.00
2019-04-14T05:24:59.880Z,87.60
2019-04-14T05:27:28.087Z,87.10
2019-04-14T05:29:56.296Z,85.90
2019-04-14T05:32:24.520Z,85.70
2019-04-14T05:34:52.742Z,86.40
2019-04-14T05:37:20.942Z,86.40
2019-04-14T05:39:50.408Z,86.20
2019-04-14T05:42:22.074Z,85.90
2019-04-14T05:44:49.437Z,86.00
2019-04-14T05:47:17.751Z,85.90
2019-04-14T05:49:50.087Z,83.90
2019-04-14T05:52:16.359Z,83.60
2019-04-14T05:54:44.789Z,83.90
2019-04-14T05:57:13.394Z,83.70
2019-04-14T05:59:41.866Z,83.30
2019-04-14T06:02:10.147Z,82.80
2019-04-14T06:04:39.562Z,82.00
2019-04-14T06:07:07.952Z,82.30
2019-04-14T06:09:36.183Z,82.10
2019-04-14T06:12:04.379Z,81.70
2019-04-14T06:14:32.588Z,81.70
2019-04-14T06:17:00.788Z,81.80
2019-04-14T06:19:37.080Z,81.10
2019-04-14T06:21:58.963Z,80.80
2019-04-14T06:24:27.181Z,79.90
2019-04-14T06:26:55.376Z,79.40
2019-04-14T06:29:23.595Z,77.60
2019-04-14T06:31:53.456Z,78.30
2019-04-14T06:34:23.332Z,76.10
2019-04-14T06:36:53.192Z,77.00
2019-04-14T06:39:23.033Z,76.30
2019-04-14T06:41:51.247Z,76.10
2019-04-14T06:44:19.499Z,75.70
2019-04-14T06:46:47.730Z,74.50
2019-04-14T06:49:15.930Z,72.70
2019-04-14T06:51:44.154Z,70.70
2019-04-14T06:54:12.385Z,69.60
2019-04-14T06:56:40.600Z,68.90
2019-04-14T06:59:08.807Z,68.40
2019-04-14T07:01:39.031Z,67.10
2019-04-14T07:04:06.981Z,66.60
2019-04-14T07:06:35.191Z,66.90
2019-04-14T07:09:03.972Z,64.90
2019-04-14T07:11:32.199Z,63.10
2019-04-14T07:14:00.494Z,60.50
2019-04-14T07:16:28.717Z,60.40
2019-04-14T07:18:56.931Z,60.60
2019-04-14T07:21:25.147Z,60.10
2019-04-14T07:23:53.380Z,61.10
2019-04-14T07:26:21.588Z,59.40
2019-04-14T07:28:56.640Z,56.40
2019-04-14T07:31:27.382Z,53.70
2019-04-14T07:34:03.205Z,51.90
2019-04-14T07:36:33.047Z,50.70
2019-04-14T07:39:05.674Z,49.10
2019-04-14T07:41:44.552Z,48.80
2019-04-14T07:44:29.537Z,48.70
2019-04-14T07:46:59.400Z,49.30
2019-04-14T07:49:38.216Z,48.00
2019-04-14T07:52:08.060Z,48.80
2019-04-14T07:54:41.417Z,50.40
2019-04-14T07:57:23.508Z,47.60
2019-04-14T07:59:53.455Z,45.40
2019-04-14T08:02:29.320Z,45.30
2019-04-14T08:05:01.942Z,43.90
2019-04-14T08:07:30.161Z,45.20
2019-04-14T08:09:58.364Z,46.70
2019-04-14T08:12:26.598Z,44.50
2019-04-14T08:14:54.844Z,42.80
2019-04-14T08:17:23.101Z,40.00
2019-04-14T08:19:51.312Z,41.50
2019-04-14T08:22:19.545Z,41.80
2019-04-14T08:24:47.760Z,38.20
2019-04-14T08:27:15.982Z,39.10
2019-04-14T08:29:44.192Z,39.50
2019-04-14T08:32:12.400Z,40.10
2019-04-14T08:34:40.620Z,40.10
2019-04-14T08:37:08.843Z,41.00
2019-04-14T08:39:37.108Z,40.40
2019-04-14T08:42:16.126Z,41.80
2019-04-14T08:44:45.995Z,41.00
2019-04-14T08:47:27.914Z,40.50
2019-04-14T08:49:57.789Z,37.40
2019-04-14T08:52:27.659Z,36.60
2019-04-14T08:54:57.500Z,39.60
2019-04-14T08:57:43.596Z,39.50
2019-04-14T09:00:13.476Z,37.90
2019-04-14T09:02:43.319Z,36.50
2019-04-14T09:05:29.451Z,36.60
2019-04-14T09:08:02.392Z,37.00
2019-04-14T09:10:32.248Z,34.20
2019-04-14T09:13:00.475Z,34.30
2019-04-14T09:15:28.684Z,36.80
2019-04-14T09:17:56.931Z,35.00
2019-04-14T09:20:25.136Z,34.70
2019-04-14T09:22:53.527Z,32.90
2019-04-14T09:25:21.744Z,31.10
2019-04-14T09:27:49.981Z,30.50
2019-04-14T09:30:18.554Z,32.40
2019-04-14T09:32:46.764Z,30.60
2019-04-14T09:35:14.992Z,31.10
2019-04-14T09:37:43.232Z,30.10
2019-04-14T09:40:11.448Z,28.80
2019-04-14T09:42:39.659Z,29.20
2019-04-14T09:45:07.884Z,29.90
2019-04-14T09:47:36.092Z,29.40
2019-04-14T09:50:05.648Z,28.80
2019-04-14T09:52:33.875Z,27.90
2019-04-14T09:55:02.149Z,30.60
2019-04-14T09:57:30.351Z,29.20
2019-04-14T09:59:58.570Z,28.80
2019-04-14T10:02:26.786Z,27.70
2019-04-14T10:04:55.011Z,26.40
2019-04-14T10:07:23.283Z,24.80
2019-04-14T10:09:51.533Z,23.70
2019-04-14T10:12:19.816Z,25.80
2019-04-14T10:14:48.040Z,26.40
2019-04-14T10:17:16.265Z,28.60
2019-04-14T10:19:44.566Z,27.90
2019-04-14T10:22:12.802Z,26.80
2019-04-14T10:24:41.004Z,27.60
2019-04-14T10:27:09.219Z,27.00
2019-04-14T10:29:37.428Z,27.90
2019-04-14T10:32:05.707Z,26.90
2019-04-14T10:34:33.895Z,25.80
2019-04-14T10:37:02.118Z,24.40
2019-04-14T10:39:30.343Z,26.10
2019-04-14T10:41:58.546Z,26.70
2019-04-14T10:44:26.920Z,26.20
2019-04-14T10:46:55.128Z,26.70
2019-04-14T10:49:23.345Z,27.60
2019-04-14T10:51:51.568Z,25.30
2019-04-14T10:54:19.789Z,25.10
2019-04-14T10:56:48.000Z,25.70
2019-04-14T10:59:16.245Z,24.40
2019-04-14T11:01:44.473Z,22.40
2019-04-14T11:04:12.688Z,23.50
2019-04-14T11:06:42.600Z,24.20
2019-04-14T11:09:12.458Z,27.60
2019-04-14T11:11:40.683Z,28.10
2019-04-14T11:14:08.883Z,29.10
2019-04-14T11:16:37.091Z,30.30
2019-04-14T11:19:05.313Z,33.80
2019-04-14T11:21:42.384Z,34.00
2019-04-14T11:24:03.477Z,34.80
2019-04-14T11:26:31.684Z,34.60
2019-04-14T11:28:59.900Z,35.60
2019-04-14T11:31:46.455Z,33.30
2019-04-14T11:34:16.319Z,30.10
2019-04-14T11:37:01.219Z,28.70
2019-04-14T11:39:29.546Z,30.90
2019-04-14T11:41:57.831Z,27.90
2019-04-14T11:44:26.075Z,30.80
2019-04-14T11:46:54.282Z,33.00
2019-04-14T11:49:22.498Z,34.80
2019-04-14T11:51:55.529Z,36.10
2019-04-14T11:54:20.674Z,35.70
2019-04-14T11:56:48.917Z,36.10
2019-04-14T11:59:18.751Z,35.20
2019-04-14T12:02:00.904Z,32.00
2019-04-14T12:04:30.768Z,30.20
2019-04-14T12:07:17.164Z,27.70
2019-04-14T12:09:47.018Z,27.00
2019-04-14T12:12:15.314Z,28.00
2019-04-14T12:14:43.520Z,27.80
2019-04-14T12:17:11.744Z,29.00
2019-04-14T12:19:39.973Z,30.80
2019-04-14T12:22:08.824Z,30.80
2019-04-14T12:24:37.298Z,34.20
2019-04-14T12:27:05.514Z,35.50
2019-04-14T12:29:34.814Z,31.70
2019-04-14T12:32:03.954Z,29.10
2019-04-14T12:34:32.389Z,30.30
2019-04-14T12:37:00.665Z,33.70
2019-04-14T12:39:28.992Z,38.40
2019-04-14T12:42:17.187Z,39.70
2019-04-14T12:44:49.509Z,40.30
2019-04-14T12:47:25.332Z,39.90
2019-04-14T12:49:55.200Z,41.10
2019-04-14T12:52:25.064Z,40.00
2019-04-14T12:54:53.314Z,40.50
2019-04-14T12:57:38.574Z,39.70
2019-04-14T13:00:08.423Z,38.60
2019-04-14T13:02:40.925Z,38.80
2019-04-14T13:05:09.613Z,39.90
2019-04-14T13:07:37.836Z,40.60
2019-04-14T13:10:07.029Z,42.40
2019-04-14T13:12:35.251Z,42.10
2019-04-14T13:15:05.130Z,41.20
2019-04-14T13:17:33.349Z,41.50
2019-04-14T13:20:01.574Z,43.20
2019-04-14T13:22:34.236Z,44.80
2019-04-14T13:24:59.735Z,45.50
2019-04-14T13:27:27.975Z,44.60
2019-04-14T13:29:56.188Z,44.10
2019-04-14T13:32:35.344Z,43.60
2019-04-14T13:34:54.397Z,44.00
2019-04-14T13:37:22.620Z,44.60
2019-04-14T13:39:50.831Z,45.40
2019-04-14T13:42:19.072Z,46.20
2019-04-14T13:44:47.273Z,47.10
2019-04-14T13:47:15.504Z,47.30
2019-04-14T13:49:43.715Z,47.80
2019-04-14T13:52:11.963Z,49.10
2019-04-14T13:54:40.252Z,48.30
2019-04-14T13:57:08.447Z,48.80
2019-04-14T13:59:36.681Z,47.90
2019-04-14T14:02:04.971Z,48.60
2019-04-14T14:04:33.209Z,48.10
2019-04-14T14:07:01.447Z,49.00
2019-04-14T14:09:29.664Z,49.00
2019-04-14T14:12:05.567Z,47.80
2019-04-14T14:14:44.563Z,48.60
2019-04-14T14:17:30.696Z,49.60
2019-04-14T14:20:09.434Z,50.50
2019-04-14T14:22:59.654Z,51.20
2019-04-14T14:25:27.398Z,51.00
2019-04-14T14:27:55.588Z,52.10
2019-04-14T14:30:23.810Z,51.30
2019-04-14T14:32:52.036Z,51.80
2019-04-14T14:35:20.276Z,51.80
2019-04-14T14:37:48.517Z,51.80
2019-04-14T14:40:16.749Z,52.60
2019-04-14T14:42:44.939Z,53.30
2019-04-14T14:45:14.809Z,53.50
2019-04-14T14:47:44.673Z,54.00
2019-04-14T14:50:32.887Z,53.50
2019-04-14T14:53:11.625Z,54.30
2019-04-14T14:55:31.052Z,54.80
2019-04-14T14:57:59.266Z,54.60
2019-04-14T15:00:29.144Z,55.10
2019-04-14T15:02:57.360Z,54.90
2019-04-14T15:05:25.577Z,55.30
2019-04-14T15:07:53.798Z,55.10
2019-04-14T15:10:22.165Z,55.30
2019-04-14T15:12:50.441Z,55.70
2019-04-14T15:15:18.652Z,56.60
2019-04-14T15:17:47.043Z,56.70
2019-04-14T15:20:15.319Z,56.40
2019-04-14T15:22:43.538Z,57.00
2019-04-14T15:25:11.764Z,56.70
2019-04-14T15:27:39.976Z,56.50
2019-04-14T15:30:10.073Z,57.60
2019-04-14T15:32:38.345Z,57.70
2019-04-14T15:35:06.578Z,56.00
2019-04-14T15:37:34.788Z,55.80
2019-04-14T15:40:03.459Z,56.00
2019-04-14T15:42:31.682Z,56.40
2019-04-14T15:44:59.905Z,57.30
2019-04-14T15:47:28.747Z,57.40
2019-04-14T15:49:57.005Z,58.00
2019-04-14T15:52:25.212Z,58.20
2019-04-14T15:54:53.420Z,58.40
2019-04-14T15:57:29.332Z,58.40
2019-04-14T15:59:59.176Z,58.60
2019-04-14T16:02:32.300Z,59.40
2019-04-14T16:05:04.830Z,59.70
2019-04-14T16:07:46.901Z,60.60
2019-04-14T16:10:16.737Z,60.70
2019-04-14T16:12:49.298Z,60.70
2019-04-14T16:15:25.220Z,61.00
2019-04-14T16:17:58.096Z,61.20
2019-04-14T16:20:31.345Z,61.50
2019-04-14T16:22:59.573Z,61.90
2019-04-14T16:25:29.442Z,62.40
2019-04-14T16:27:59.313Z,63.30
2019-04-14T16:30:32.120Z,63.50
2019-04-14T16:33:20.024Z,64.30
2019-04-14T16:35:48.816Z,64.30
2019-04-14T16:38:17.056Z,67.80
2019-04-14T16:40:45.274Z,65.20
2019-04-14T16:43:13.499Z,61.40
2019-04-14T16:45:41.692Z,64.10
2019-04-14T16:48:09.917Z,62.70
2019-04-14T16:50:38.144Z,62.10
2019-04-14T16:53:19.701Z,62.00
2019-04-14T16:55:52.728Z,62.50
2019-04-14T16:58:22.603Z,63.80
2019-04-14T17:01:01.631Z,64.30
2019-04-14T17:03:29.845Z,64.60
2019-04-14T17:05:58.307Z,64.70
2019-04-14T17:08:26.513Z,65.10
2019-04-14T17:10:54.988Z,64.80
2019-04-14T17:13:24.915Z,65.10
2019-04-14T17:15:54.771Z,65.90
2019-04-14T17:18:27.339Z,64.90
2019-04-14T17:21:00.111Z,64.70
2019-04-14T17:23:41.972Z,65.30
2019-04-14T17:26:11.828Z,65.30
2019-04-14T17:28:56.878Z,65.80
2019-04-14T17:31:35.208Z,65.40
2019-04-14T17:34:07.529Z,66.00
2019-04-14T17:36:39.813Z,66.30
2019-04-14T17:39:09.708Z,67.00
2019-04-14T17:41:48.723Z,67.60
2019-04-14T17:44:24.429Z,67.80
2019-04-14T17:47:03.139Z,68.10
2019-04-14T17:49:38.839Z,68.50
2019-04-14T17:52:25.238Z,68.20
2019-04-14T17:54:57.692Z,68.90
2019-04-14T17:57:43.522Z,68.90
2019-04-14T18:00:16.350Z,68.80
2019-04-14T18:02:49.086Z,69.30
2019-04-14T18:05:18.953Z,69.70
2019-04-14T18:07:57.896Z,69.90
2019-04-14T18:10:27.752Z,70.00
2019-04-14T18:13:09.621Z,70.30
2019-04-14T18:15:42.182Z,70.80
2019-04-14T18:18:14.990Z,71.00
2019-04-14T18:20:44.884Z,71.60
2019-04-14T18:23:13.167Z,71.60
2019-04-14T18:25:41.375Z,71.50
2019-04-14T18:28:31.242Z,71.70
2019-04-14T18:31:01.076Z,71.90
2019-04-14T18:34:08.486Z,72.00
2019-04-14T18:36:54.759Z,72.90
2019-04-14T18:39:33.168Z,72.90
2019-04-14T18:42:11.829Z,72.70
2019-04-14T18:44:42.052Z,72.80
2019-04-14T18:47:26.792Z,73.00
2019-04-14T18:49:56.713Z,72.70
2019-04-14T18:52:26.609Z,73.40
2019-04-14T18:54:56.576Z,73.30
2019-04-14T18:57:29.157Z,73.60
2019-04-14T18:59:59.092Z,73.70
2019-04-14T19:02:27.375Z,73.70
2019-04-14T19:04:55.563Z,74.10
2019-04-14T19:07:23.829Z,74.30
2019-04-14T19:09:52.032Z,74.20
2019-04-14T19:12:21.915Z,74.10
2019-04-14T19:14:51.740Z,74.10
2019-04-14T19:17:27.670Z,74.30
2019-04-14T19:20:01.903Z,74.50
2019-04-14T19:22:27.688Z,74.50
2019-04-14T19:25:07.482Z,74.80
2019-04-14T19:27:25.962Z,74.80
2019-04-14T19:29:54.178Z,75.10
2019-04-14T19:32:22.388Z,74.80
2019-04-14T19:34:50.735Z,74.80
2019-04-14T19:37:19.013Z,74.70
2019-04-14T19:39:47.234Z,75.00
2019-04-14T19:42:15.457Z,75.20
2019-04-14T19:44:43.669Z,75.90
2019-04-14T19:47:11.888Z,75.40
2019-04-14T19:49:40.163Z,75.60
2019-04-14T19:52:08.407Z,75.30
2019-04-14T19:54:37.482Z,75.60
2019-04-14T19:57:05.706Z,75.30
2019-04-14T19:59:33.907Z,75.40
2019-04-14T20:02:02.107Z,75.60
2019-04-14T20:04:30.320Z,76.30
2019-04-14T20:06:58.543Z,76.00
2019-04-14T20:09:26.772Z,76.10
2019-04-14T20:11:54.973Z,76.20
2019-04-14T20:14:23.264Z,75.90
2019-04-14T20:16:58.792Z,75.90
2019-04-14T20:19:44.948Z,75.90
2019-04-14T20:22:29.992Z,76.00
2019-04-14T20:25:02.778Z,76.20
2019-04-14T20:27:32.683Z,76.20
2019-04-14T20:30:09.016Z,76.60
2019-04-14T20:32:40.877Z,76.50
2019-04-14T20:35:09.468Z,76.70
2019-04-14T20:37:37.902Z,76.60
2019-04-14T20:40:09.542Z,76.40
2019-04-14T20:42:39.411Z,76.70
2019-04-14T20:45:08.450Z,76.80
2019-04-14T20:47:37.352Z,77.10
2019-04-14T20:50:07.305Z,77.10
2019-04-14T20:52:35.866Z,78.10
2019-04-14T20:55:07.588Z,78.00
2019-04-14T20:57:36.479Z,77.50
2019-04-14T21:00:05.993Z,77.60
2019-04-14T21:02:36.214Z,77.80
2019-04-14T21:05:26.236Z,78.10
2019-04-14T21:08:12.344Z,77.60
2019-04-14T21:10:42.218Z,77.90
2019-04-14T21:13:18.784Z,78.20
2019-04-14T21:15:51.268Z,78.40
2019-04-14T21:18:21.151Z,78.70
2019-04-14T21:20:59.765Z,78.60
2019-04-14T21:23:38.732Z,79.40
2019-04-14T21:26:11.406Z,78.90
2019-04-14T21:28:46.800Z,78.90
2019-04-14T21:31:22.429Z,78.90
2019-04-14T21:33:55.183Z,78.90
2019-04-14T21:36:27.910Z,79.20
2019-04-14T21:38:57.771Z,79.10
2019-04-14T21:41:27.725Z,79.30
2019-04-14T21:43:55.933Z,79.40
2019-04-14T21:46:24.152Z,79.40
2019-04-14T21:48:52.416Z,79.70
2019-04-14T21:51:24.984Z,79.80
2019-04-14T21:53:53.236Z,80.30
2019-04-14T21:56:22.933Z,81.20
2019-04-14T21:58:52.788Z,80.80
2019-04-14T22:01:43.784Z,81.40
2019-04-14T22:04:30.220Z,81.10
2019-04-14T22:07:00.097Z,81.40
2019-04-14T22:09:32.536Z,81.00
2019-04-14T22:12:02.403Z,80.70
2019-04-14T22:14:30.613Z,80.60
2019-04-14T22:16:58.835Z,80.70
2019-04-14T22:19:27.111Z,80.50
2019-04-14T22:21:55.321Z,80.20
2019-04-14T22:24:23.543Z,80.00
2019-04-14T22:26:51.756Z,80.10
2019-04-14T22:29:19.993Z,80.30
2019-04-14T22:31:48.215Z,80.50
2019-04-14T22:34:16.437Z,80.20
2019-04-14T22:36:44.662Z,80.60
2019-04-14T22:39:16.999Z,80.70
2019-04-14T22:41:45.238Z,81.40
2019-04-14T22:44:13.532Z,81.20
2019-04-14T22:46:41.738Z,81.50
2019-04-14T22:49:09.988Z,81.60
2019-04-14T22:51:38.220Z,81.70
2019-04-14T22:54:06.411Z,81.80
2019-04-14T22:56:39.440Z,82.70
2019-04-14T22:59:04.712Z,82.50
2019-04-14T23:01:34.545Z,82.10
2019-04-14T23:04:10.631Z,82.30
2019-04-14T23:06:58.773Z,82.60
2019-04-14T23:09:28.662Z,82.80
2019-04-14T23:12:16.705Z,83.30
2019-04-14T23:14:52.503Z,83.40
2019-04-14T23:17:37.449Z,83.40
2019-04-14T23:20:08.760Z,83.50
2019-04-14T23:22:41.504Z,83.90
2019-04-14T23:25:09.729Z,84.10
2019-04-14T23:27:37.973Z,84.30
2019-04-14T23:30:06.287Z,84.60
2019-04-14T23:32:34.550Z,84.80
2019-04-14T23:35:02.908Z,85.20
2019-04-14T23:37:31.129Z,85.30
2019-04-14T23:39:59.360Z,85.50
2019-04-14T23:42:27.594Z,85.70
2019-04-14T23:44:55.808Z,85.80
2019-04-14T23:47:24.020Z,86.00
2019-04-14T23:49:52.278Z,86.30
2019-04-14T23:52:20.502Z,86.50
2019-04-14T23:54:48.736Z,86.80
2019-04-14T23:57:16.971Z,87.10
2019-04-14T23:59:45.201Z,87.20
